Time;durP1;ratioP1;P1;durP2;ratioP2;P2;SDS_P1;SDS_P2;PMS_P1;PMS_P2;Temp;Humidity;BMP_temperature;BMP_pressure;BME280_temperature;BME280_humidity;BME280_pressure;Samples;Min_cycle;Max_cycle;Signal;HPM_P1;HPM_P2
2021/08/17 00:01:14;;;;;;;39.50;17.65;;;;;;;;;;5109545;28;20028;-72
2021/08/17 00:03:40;;;;;;;33.30;16.60;;;;;;;;;;5106403;28;20015;-72
2021/08/17 00:06:07;;;;;;;40.97;17.80;;;;;;;;;;5109279;28;20015;-71
2021/08/17 00:08:34;;;;;;;37.92;15.32;;;;;;;;;;5106952;28;20031;-72
2021/08/17 00:11:00;;;;;;;41.20;15.68;;;;;;;;;;5109415;28;20131;-73
2021/08/17 00:13:26;;;;;;;38.67;16.80;;;;;;;;;;5108137;28;20047;-72
2021/08/17 00:15:52;;;;;;;37.40;16.77;;;;;;;;;;5109098;28;20020;-72
2021/08/17 00:18:18;;;;;;;36.42;18.30;;;;;;;;;;5109339;28;20051;-73
2021/08/17 00:20:46;;;;;;;42.30;17.60;;;;;;;;;;5108569;28;20020;-73
2021/08/17 00:23:12;;;;;;;41.33;17.05;;;;;;;;;;5108461;28;20024;-73
2021/08/17 00:25:42;;;;;;;42.13;16.70;;;;;;;;;;5089175;28;20023;-73
2021/08/17 00:28:09;;;;;;;35.33;15.57;;;;;;;;;;5110698;28;20102;-72
2021/08/17 00:30:35;;;;;;;35.60;16.08;;;;;;;;;;5109439;28;20023;-73
2021/08/17 00:33:01;;;;;;;36.88;16.45;;;;;;;;;;5107190;28;20080;-72
2021/08/17 00:35:27;;;;;;;38.22;14.85;;;;;;;;;;5107876;28;20051;-72
2021/08/17 00:37:53;;;;;;;38.58;15.50;;;;;;;;;;5109960;28;20036;-73
2021/08/17 00:40:19;;;;;;;40.75;14.98;;;;;;;;;;5105484;28;20035;-72
2021/08/17 00:42:46;;;;;;;37.40;16.65;;;;;;;;;;5105678;28;20020;-72
2021/08/17 00:45:13;;;;;;;39.10;15.32;;;;;;;;;;5106792;28;20059;-71
2021/08/17 00:47:39;;;;;;;37.35;17.17;;;;;;;;;;5106474;28;20031;-72
2021/08/17 00:50:05;;;;;;;33.92;16.70;;;;;;;;;;5106659;28;20027;-71
2021/08/17 00:52:31;;;;;;;35.88;15.52;;;;;;;;;;5107833;28;20097;-73
2021/08/17 00:54:58;;;;;;;37.42;16.15;;;;;;;;;;5109884;28;20023;-73
2021/08/17 00:57:24;;;;;;;40.00;16.08;;;;;;;;;;5108760;28;20126;-72
2021/08/17 00:59:50;;;;;;;41.92;15.13;;;;;;;;;;5110215;28;20024;-73
2021/08/17 01:02:16;;;;;;;29.52;13.65;;;;;;;;;;5090790;28;20104;-72
2021/08/17 01:04:42;;;;;;;32.60;13.85;;;;;;;;;;5110973;28;20018;-73
2021/08/17 01:07:09;;;;;;;36.72;14.60;;;;;;;;;;5110946;28;20057;-72
2021/08/17 01:09:39;;;;;;;35.45;13.73;;;;;;;;;;5110887;28;20035;-73
2021/08/17 01:12:06;;;;;;;34.67;14.88;;;;;;;;;;5109210;28;20065;-73
2021/08/17 01:14:32;;;;;;;33.50;13.82;;;;;;;;;;5110759;28;20024;-73
2021/08/17 01:16:58;;;;;;;34.55;13.48;;;;;;;;;;5110328;28;20023;-73
2021/08/17 01:19:24;;;;;;;35.40;14.35;;;;;;;;;;5091088;28;20406;-72
2021/08/17 01:21:50;;;;;;;35.03;14.10;;;;;;;;;;5109287;28;20675;-72
2021/08/17 01:24:17;;;;;;;34.35;16.05;;;;;;;;;;5109671;28;20020;-73
2021/08/17 01:26:44;;;;;;;39.78;14.07;;;;;;;;;;5110723;28;20032;-74
2021/08/17 01:29:11;;;;;;;31.42;13.75;;;;;;;;;;5110579;28;20498;-74
2021/08/17 01:31:38;;;;;;;32.92;12.98;;;;;;;;;;5109415;28;20047;-76
2021/08/17 01:34:04;;;;;;;44.03;15.55;;;;;;;;;;5111313;28;20394;-72
2021/08/17 01:36:30;;;;;;;34.30;13.80;;;;;;;;;;5112163;28;20015;-72
2021/08/17 01:38:56;;;;;;;38.40;15.40;;;;;;;;;;5093618;28;20045;-73
2021/08/17 01:41:22;;;;;;;35.78;15.52;;;;;;;;;;5111166;28;20023;-71
2021/08/17 01:43:48;;;;;;;30.05;13.40;;;;;;;;;;5111803;28;20028;-72
2021/08/17 01:46:15;;;;;;;37.22;13.27;;;;;;;;;;5111424;28;20032;-73
2021/08/17 01:48:41;;;;;;;37.47;13.90;;;;;;;;;;5112213;28;20485;-73
2021/08/17 01:51:08;;;;;;;37.78;13.15;;;;;;;;;;5111162;28;20070;-72
2021/08/17 01:53:34;;;;;;;34.25;13.55;;;;;;;;;;5108772;28;20496;-71
2021/08/17 01:56:08;;;;;;;33.05;12.70;;;;;;;;;;5110714;28;20027;-72
2021/08/17 01:58:34;;;;;;;35.15;13.50;;;;;;;;;;5110154;28;20120;-73
2021/08/17 02:01:00;;;;;;;33.22;13.93;;;;;;;;;;5111690;28;20030;-73
2021/08/17 02:03:26;;;;;;;44.13;13.88;;;;;;;;;;5110488;28;20034;-73
2021/08/17 02:05:52;;;;;;;33.13;13.80;;;;;;;;;;5111630;28;20061;-73
2021/08/17 02:08:18;;;;;;;34.67;13.13;;;;;;;;;;5111019;28;20043;-73
2021/08/17 02:10:44;;;;;;;36.15;13.27;;;;;;;;;;5111336;28;20024;-73
2021/08/17 02:13:10;;;;;;;38.50;13.35;;;;;;;;;;5107577;28;20028;-72
2021/08/17 02:15:36;;;;;;;30.60;11.65;;;;;;;;;;5111772;28;20020;-73
2021/08/17 02:18:02;;;;;;;30.92;12.23;;;;;;;;;;5112217;28;20024;-73
2021/08/17 02:20:28;;;;;;;28.58;11.15;;;;;;;;;;5111933;28;20027;-73
2021/08/17 02:22:54;;;;;;;29.33;11.68;;;;;;;;;;5090913;28;20398;-73
2021/08/17 02:25:20;;;;;;;29.30;11.18;;;;;;;;;;5093001;28;20042;-73
2021/08/17 02:27:46;;;;;;;32.05;12.02;;;;;;;;;;5111009;28;21758;-72
2021/08/17 02:30:12;;;;;;;31.58;11.25;;;;;;;;;;5110716;28;20027;-71
2021/08/17 02:32:38;;;;;;;23.35;10.90;;;;;;;;;;5110344;28;20026;-73
2021/08/17 02:35:05;;;;;;;28.70;10.90;;;;;;;;;;5110217;28;20047;-72
2021/08/17 02:37:32;;;;;;;29.00;11.13;;;;;;;;;;5111100;28;20115;-73
2021/08/17 02:39:58;;;;;;;30.63;11.13;;;;;;;;;;5109172;28;20031;-73
2021/08/17 02:42:24;;;;;;;29.27;10.55;;;;;;;;;;5109514;28;20455;-73
2021/08/17 02:44:50;;;;;;;31.00;11.07;;;;;;;;;;5088875;28;20565;-73
2021/08/17 02:47:16;;;;;;;28.42;9.32;;;;;;;;;;5089767;28;20032;-73
2021/08/17 02:49:42;;;;;;;28.52;9.77;;;;;;;;;;5110996;28;20514;-73
2021/08/17 02:52:08;;;;;;;36.72;12.20;;;;;;;;;;5109620;28;20110;-73
2021/08/17 02:54:39;;;;;;;27.40;9.68;;;;;;;;;;5111285;28;20088;-73
2021/08/17 02:57:07;;;;;;;22.75;9.57;;;;;;;;;;5109131;28;20055;-72
2021/08/17 02:59:33;;;;;;;24.67;9.18;;;;;;;;;;5108115;28;20796;-73
2021/08/17 03:02:00;;;;;;;24.92;9.52;;;;;;;;;;5108787;28;20042;-73
2021/08/17 03:04:26;;;;;;;26.70;8.85;;;;;;;;;;5108875;28;20443;-73
2021/08/17 03:06:55;;;;;;;24.13;8.20;;;;;;;;;;5107479;28;20532;-73
2021/08/17 03:09:21;;;;;;;27.23;8.75;;;;;;;;;;5109822;28;20012;-72
2021/08/17 03:11:47;;;;;;;21.67;7.50;;;;;;;;;;5091121;28;20600;-73
2021/08/17 03:14:14;;;;;;;22.10;9.35;;;;;;;;;;5109899;28;20056;-71
2021/08/17 03:16:40;;;;;;;21.70;9.27;;;;;;;;;;5109934;28;20034;-73
2021/08/17 03:19:06;;;;;;;25.05;8.10;;;;;;;;;;5110591;28;20092;-73
2021/08/17 03:21:33;;;;;;;23.02;8.20;;;;;;;;;;5108400;28;20094;-73
2021/08/17 03:23:59;;;;;;;21.58;8.55;;;;;;;;;;5110375;28;20011;-73
2021/08/17 03:26:25;;;;;;;19.58;7.35;;;;;;;;;;5109515;28;20047;-73
2021/08/17 03:28:51;;;;;;;18.40;8.75;;;;;;;;;;5110607;28;20027;-73
2021/08/17 03:31:17;;;;;;;20.48;8.55;;;;;;;;;;5109272;28;20236;-73
2021/08/17 03:33:43;;;;;;;24.98;9.82;;;;;;;;;;5109537;28;20523;-72
2021/08/17 03:36:09;;;;;;;27.00;7.97;;;;;;;;;;5110850;28;20038;-72
2021/08/17 03:38:36;;;;;;;23.95;8.30;;;;;;;;;;5110007;28;20031;-73
2021/08/17 03:41:02;;;;;;;26.27;8.65;;;;;;;;;;5109693;28;20500;-73
2021/08/17 03:43:28;;;;;;;20.67;7.72;;;;;;;;;;5108497;27;20024;-73
2021/08/17 03:45:55;;;;;;;26.30;7.88;;;;;;;;;;5110057;28;20027;-73
2021/08/17 03:48:21;;;;;;;20.60;7.13;;;;;;;;;;5110502;28;20047;-73
2021/08/17 03:50:47;;;;;;;20.80;7.13;;;;;;;;;;5109155;28;20024;-73
2021/08/17 03:53:13;;;;;;;27.40;8.23;;;;;;;;;;5109212;28;20096;-73
2021/08/17 03:55:39;;;;;;;20.50;7.93;;;;;;;;;;5091648;28;20028;-72
2021/08/17 03:58:05;;;;;;;27.75;8.57;;;;;;;;;;5092279;28;20031;-73
2021/08/17 04:00:35;;;;;;;19.90;7.07;;;;;;;;;;5108762;28;20066;-73
2021/08/17 04:03:02;;;;;;;17.70;7.50;;;;;;;;;;5107790;28;20027;-73
2021/08/17 04:05:28;;;;;;;16.98;7.18;;;;;;;;;;5091199;28;20023;-73
2021/08/17 04:07:55;;;;;;;19.02;7.13;;;;;;;;;;5109517;28;20033;-73
2021/08/17 04:10:21;;;;;;;21.05;8.18;;;;;;;;;;5108231;28;20031;-72
2021/08/17 04:12:47;;;;;;;25.75;7.25;;;;;;;;;;5107743;28;20031;-73
2021/08/17 04:15:14;;;;;;;18.05;7.20;;;;;;;;;;5109155;28;20035;-73
2021/08/17 04:17:40;;;;;;;20.33;7.00;;;;;;;;;;5109862;28;20081;-73
2021/08/17 04:20:07;;;;;;;18.88;7.53;;;;;;;;;;5109245;28;20108;-73
2021/08/17 04:22:33;;;;;;;21.63;7.15;;;;;;;;;;5108903;28;20023;-73
2021/08/17 04:24:59;;;;;;;20.17;6.78;;;;;;;;;;5109506;28;20047;-73
2021/08/17 04:27:25;;;;;;;16.42;6.43;;;;;;;;;;5109764;28;20027;-73
2021/08/17 04:29:51;;;;;;;23.98;6.63;;;;;;;;;;5108315;28;20023;-73
2021/08/17 04:32:18;;;;;;;18.27;7.80;;;;;;;;;;5106738;28;20042;-72
2021/08/17 04:34:44;;;;;;;19.60;6.85;;;;;;;;;;5095260;28;20051;-73
2021/08/17 04:37:10;;;;;;;21.38;7.38;;;;;;;;;;5094129;28;20085;-72
2021/08/17 04:39:36;;;;;;;19.45;6.72;;;;;;;;;;5112995;28;20103;-73
2021/08/17 04:42:02;;;;;;;17.27;7.03;;;;;;;;;;5112962;28;20031;-73
2021/08/17 04:44:28;;;;;;;19.00;8.57;;;;;;;;;;5113718;28;20031;-73
2021/08/17 04:46:54;;;;;;;15.85;6.70;;;;;;;;;;5113599;28;20022;-73
2021/08/17 04:49:21;;;;;;;18.50;6.65;;;;;;;;;;5113295;28;20023;-73
2021/08/17 04:51:47;;;;;;;16.58;6.80;;;;;;;;;;5111799;28;20084;-72
2021/08/17 04:54:13;;;;;;;21.77;7.25;;;;;;;;;;5095297;28;20485;-72
2021/08/17 04:56:39;;;;;;;22.90;7.30;;;;;;;;;;5094474;28;20412;-73
2021/08/17 04:59:05;;;;;;;21.42;7.80;;;;;;;;;;5113781;28;20032;-73
2021/08/17 05:01:31;;;;;;;18.13;6.93;;;;;;;;;;5112306;28;20019;-73
2021/08/17 05:03:58;;;;;;;14.75;6.07;;;;;;;;;;5113279;28;20023;-72
2021/08/17 05:06:24;;;;;;;21.38;6.93;;;;;;;;;;5112461;28;20027;-72
2021/08/17 05:08:50;;;;;;;20.48;6.50;;;;;;;;;;5113657;28;20027;-72
2021/08/17 05:11:16;;;;;;;14.30;5.63;;;;;;;;;;5092633;28;20035;-73
2021/08/17 05:13:42;;;;;;;17.98;6.53;;;;;;;;;;5112384;28;20020;-73
2021/08/17 05:16:11;;;;;;;19.92;6.18;;;;;;;;;;5112954;28;21134;-72
2021/08/17 05:18:37;;;;;;;36.55;7.40;;;;;;;;;;5113060;28;20020;-72
2021/08/17 05:21:03;;;;;;;15.93;5.90;;;;;;;;;;5093393;28;20115;-72
2021/08/17 05:23:30;;;;;;;16.13;6.20;;;;;;;;;;5112295;28;20027;-73
2021/08/17 05:25:56;;;;;;;19.10;6.50;;;;;;;;;;5112029;28;20027;-73
2021/08/17 05:28:23;;;;;;;22.98;7.30;;;;;;;;;;5112901;28;20119;-72
2021/08/17 05:30:49;;;;;;;27.25;6.35;;;;;;;;;;5111674;28;20024;-72
2021/08/17 05:33:15;;;;;;;14.85;5.68;;;;;;;;;;5112262;28;20089;-72
2021/08/17 05:35:43;;;;;;;15.43;6.47;;;;;;;;;;5111987;28;20051;-73
2021/08/17 05:38:09;;;;;;;19.05;7.13;;;;;;;;;;5112770;28;20104;-72
2021/08/17 05:40:35;;;;;;;21.90;7.40;;;;;;;;;;5109690;28;20020;-72
2021/08/17 05:43:03;;;;;;;15.90;7.07;;;;;;;;;;5110914;28;20043;-73
2021/08/17 05:45:29;;;;;;;16.92;6.45;;;;;;;;;;5112587;28;20552;-71
2021/08/17 05:47:55;;;;;;;17.05;6.20;;;;;;;;;;5112683;28;20069;-72
2021/08/17 05:50:21;;;;;;;19.30;7.07;;;;;;;;;;5110739;28;20027;-72
2021/08/17 05:52:47;;;;;;;19.95;6.80;;;;;;;;;;5111356;28;20102;-72
2021/08/17 05:55:14;;;;;;;19.08;6.57;;;;;;;;;;5112638;28;20544;-72
2021/08/17 05:57:40;;;;;;;16.33;7.07;;;;;;;;;;5111874;28;20412;-71
2021/08/17 06:00:09;;;;;;;16.02;6.68;;;;;;;;;;5110490;28;20024;-72
2021/08/17 06:02:35;;;;;;;16.48;6.35;;;;;;;;;;5110792;28;20055;-72
2021/08/17 06:05:02;;;;;;;17.40;7.18;;;;;;;;;;5093292;28;20031;-72
2021/08/17 06:07:28;;;;;;;17.33;6.57;;;;;;;;;;5110555;28;20027;-72
2021/08/17 06:09:54;;;;;;;17.48;7.32;;;;;;;;;;5112352;28;20024;-72
2021/08/17 06:12:20;;;;;;;17.48;7.32;;;;;;;;;;5092482;28;20030;-70
2021/08/17 06:14:46;;;;;;;19.52;6.93;;;;;;;;;;5112251;28;20104;-72
2021/08/17 06:17:12;;;;;;;21.38;7.18;;;;;;;;;;5111237;28;20027;-71
2021/08/17 06:19:38;;;;;;;15.60;6.55;;;;;;;;;;5111575;28;20016;-72
2021/08/17 06:22:04;;;;;;;15.95;6.03;;;;;;;;;;5110460;28;20023;-70
2021/08/17 06:24:30;;;;;;;15.48;5.60;;;;;;;;;;5111978;28;20027;-72
2021/08/17 06:26:56;;;;;;;13.40;5.43;;;;;;;;;;5112057;28;20030;-73
2021/08/17 06:29:22;;;;;;;15.73;5.55;;;;;;;;;;5091862;28;20111;-72
2021/08/17 06:31:49;;;;;;;16.05;6.10;;;;;;;;;;5111328;27;20074;-71
2021/08/17 06:34:15;;;;;;;18.02;6.00;;;;;;;;;;5110579;28;20127;-72
2021/08/17 06:36:42;;;;;;;15.77;5.57;;;;;;;;;;5093602;28;20524;-73
2021/08/17 06:39:08;;;;;;;10.40;4.82;;;;;;;;;;5110050;28;20023;-71
2021/08/17 06:41:35;;;;;;;15.15;5.72;;;;;;;;;;5109822;28;20397;-73
2021/08/17 06:44:01;;;;;;;15.10;5.43;;;;;;;;;;5097024;28;20542;-72
2021/08/17 06:46:27;;;;;;;15.25;5.53;;;;;;;;;;5110973;28;20020;-71
2021/08/17 06:48:54;;;;;;;15.63;5.30;;;;;;;;;;5106793;28;20028;-71
2021/08/17 06:51:20;;;;;;;15.77;5.15;;;;;;;;;;5111000;28;20024;-72
2021/08/17 06:53:46;;;;;;;16.55;5.88;;;;;;;;;;5109174;28;20020;-72
2021/08/17 06:56:12;;;;;;;17.88;5.07;;;;;;;;;;5108516;28;20073;-72
2021/08/17 06:58:38;;;;;;;22.58;6.25;;;;;;;;;;5110954;28;20035;-72
2021/08/17 07:01:04;;;;;;;16.92;5.57;;;;;;;;;;5110031;28;20447;-73
2021/08/17 07:03:30;;;;;;;18.70;6.20;;;;;;;;;;5109557;28;20016;-72
2021/08/17 07:05:56;;;;;;;17.67;5.13;;;;;;;;;;5109595;28;20022;-71
2021/08/17 07:08:23;;;;;;;14.55;4.88;;;;;;;;;;5110930;28;20028;-72
2021/08/17 07:10:49;;;;;;;15.85;6.00;;;;;;;;;;5112984;27;20047;-72
2021/08/17 07:13:15;;;;;;;17.75;4.97;;;;;;;;;;5109867;28;20031;-72
2021/08/17 07:15:42;;;;;;;15.40;4.63;;;;;;;;;;5110912;28;20028;-73
2021/08/17 07:18:09;;;;;;;14.98;4.97;;;;;;;;;;5110604;28;20546;-72
2021/08/17 07:20:35;;;;;;;10.43;4.78;;;;;;;;;;5107700;28;20108;-72
2021/08/17 07:23:01;;;;;;;10.80;3.97;;;;;;;;;;5108681;28;20034;-73
2021/08/17 07:25:27;;;;;;;23.80;5.63;;;;;;;;;;5107700;28;20054;-74
2021/08/17 07:27:53;;;;;;;14.07;5.90;;;;;;;;;;5105698;28;20057;-72
2021/08/17 07:30:20;;;;;;;15.85;4.95;;;;;;;;;;5107198;28;20107;-73
2021/08/17 07:32:46;;;;;;;14.38;4.63;;;;;;;;;;5091036;28;20050;-72
2021/08/17 07:35:14;;;;;;;14.27;4.65;;;;;;;;;;5109776;28;20043;-72
2021/08/17 07:37:44;;;;;;;12.80;4.30;;;;;;;;;;5109357;28;20019;-71
2021/08/17 07:40:10;;;;;;;15.55;4.28;;;;;;;;;;5109127;28;20026;-72
2021/08/17 07:42:36;;;;;;;19.13;5.95;;;;;;;;;;5104886;28;20110;-72
2021/08/17 07:45:04;;;;;;;12.68;4.40;;;;;;;;;;5109230;28;20103;-72
2021/08/17 07:47:30;;;;;;;15.98;5.10;;;;;;;;;;5108932;28;20249;-72
2021/08/17 07:49:56;;;;;;;18.33;5.20;;;;;;;;;;5090535;28;20024;-72
2021/08/17 07:52:22;;;;;;;17.10;4.72;;;;;;;;;;5106498;28;20038;-69
2021/08/17 07:54:48;;;;;;;13.05;4.28;;;;;;;;;;5109077;28;20031;-72
2021/08/17 07:57:14;;;;;;;12.10;4.63;;;;;;;;;;5107235;28;20424;-70
2021/08/17 07:59:40;;;;;;;13.10;3.78;;;;;;;;;;5108361;28;20047;-72
2021/08/17 08:02:07;;;;;;;10.48;3.88;;;;;;;;;;5106113;28;20023;-71
2021/08/17 08:04:33;;;;;;;12.38;3.88;;;;;;;;;;5107868;28;20131;-71
2021/08/17 08:06:59;;;;;;;12.75;4.50;;;;;;;;;;5105504;28;20065;-71
2021/08/17 08:09:25;;;;;;;15.38;4.35;;;;;;;;;;5108869;28;20023;-75
2021/08/17 08:11:51;;;;;;;8.52;4.07;;;;;;;;;;5105223;28;20016;-72
2021/08/17 08:14:17;;;;;;;10.27;4.10;;;;;;;;;;5088611;28;20057;-71
2021/08/17 08:16:43;;;;;;;13.27;4.03;;;;;;;;;;5090705;28;20120;-72
2021/08/17 08:19:09;;;;;;;12.00;4.40;;;;;;;;;;5107279;28;20333;-72
2021/08/17 08:21:35;;;;;;;12.52;4.53;;;;;;;;;;5082843;28;20024;-72
2021/08/17 08:24:01;;;;;;;11.35;4.20;;;;;;;;;;5107933;28;20529;-72
2021/08/17 08:26:27;;;;;;;10.95;4.00;;;;;;;;;;5107376;28;20447;-73
2021/08/17 08:28:53;;;;;;;9.70;3.83;;;;;;;;;;5108566;28;20046;-72
2021/08/17 08:31:21;;;;;;;11.10;5.10;;;;;;;;;;5102111;28;20413;-72
2021/08/17 08:33:47;;;;;;;17.00;4.93;;;;;;;;;;5106091;28;20036;-72
2021/08/17 08:36:13;;;;;;;10.68;4.15;;;;;;;;;;5107214;28;20429;-73
2021/08/17 08:38:39;;;;;;;10.00;3.90;;;;;;;;;;5108454;28;20020;-73
2021/08/17 08:41:05;;;;;;;10.20;3.78;;;;;;;;;;5091848;28;20039;-71
2021/08/17 08:43:31;;;;;;;13.73;4.95;;;;;;;;;;5105567;28;20042;-70
2021/08/17 08:45:58;;;;;;;12.13;4.55;;;;;;;;;;5105350;28;20115;-72
2021/08/17 08:48:24;;;;;;;12.00;4.07;;;;;;;;;;5106201;28;20035;-72
2021/08/17 08:50:50;;;;;;;11.35;4.50;;;;;;;;;;5098817;28;20518;-73
2021/08/17 08:53:19;;;;;;;16.38;4.68;;;;;;;;;;5085924;28;20035;-72
2021/08/17 08:55:45;;;;;;;12.48;4.10;;;;;;;;;;5107315;28;20035;-73
2021/08/17 08:58:11;;;;;;;10.73;3.97;;;;;;;;;;5109623;28;20307;-72
2021/08/17 09:00:37;;;;;;;12.25;4.00;;;;;;;;;;5110043;28;20088;-70
2021/08/17 09:03:03;;;;;;;13.45;5.22;;;;;;;;;;5107155;28;20016;-71
2021/08/17 09:05:29;;;;;;;12.90;3.65;;;;;;;;;;5109584;28;20027;-70
2021/08/17 09:07:56;;;;;;;9.57;4.32;;;;;;;;;;5108769;28;20126;-71
2021/08/17 09:10:24;;;;;;;17.13;4.65;;;;;;;;;;5108253;28;20072;-69
2021/08/17 09:12:51;;;;;;;14.77;5.32;;;;;;;;;;5103041;28;20024;-68
2021/08/17 09:15:20;;;;;;;15.10;4.45;;;;;;;;;;5098558;28;20031;-68
2021/08/17 09:17:59;;;;;;;12.15;4.82;;;;;;;;;;5109607;28;20107;-69
2021/08/17 09:20:33;;;;;;;11.05;5.38;;;;;;;;;;5113405;28;20020;-70
2021/08/17 09:23:18;;;;;;;13.43;5.13;;;;;;;;;;5101446;28;20008;-71
2021/08/17 09:25:44;;;;;;;17.40;4.93;;;;;;;;;;5113468;28;20038;-73
2021/08/17 09:28:29;;;;;;;16.00;6.25;;;;;;;;;;5113341;28;20028;-74
2021/08/17 09:30:56;;;;;;;14.75;5.90;;;;;;;;;;5112258;28;20027;-75
2021/08/17 09:33:22;;;;;;;15.07;5.07;;;;;;;;;;5113022;27;20012;-76
2021/08/17 09:35:54;;;;;;;14.32;6.00;;;;;;;;;;5112604;28;20059;-72
2021/08/17 09:38:20;;;;;;;17.08;7.07;;;;;;;;;;5113499;28;20038;-74
2021/08/17 09:40:46;;;;;;;21.08;6.43;;;;;;;;;;5113441;28;20111;-75
2021/08/17 09:43:16;;;;;;;13.73;6.65;;;;;;;;;;5109795;28;20090;-72
2021/08/17 09:45:43;;;;;;;18.48;7.38;;;;;;;;;;5112503;28;20081;-73
2021/08/17 09:48:11;;;;;;;21.33;6.95;;;;;;;;;;5112913;28;20030;-74
2021/08/17 09:50:38;;;;;;;21.33;7.30;;;;;;;;;;5108460;28;20105;-74
2021/08/17 09:53:14;;;;;;;17.75;7.60;;;;;;;;;;5107221;28;20027;-73
2021/08/17 09:55:45;;;;;;;14.25;7.07;;;;;;;;;;5110280;28;20054;-70
2021/08/17 09:58:23;;;;;;;19.70;7.60;;;;;;;;;;5112465;28;20488;-73
2021/08/17 10:00:50;;;;;;;19.85;8.30;;;;;;;;;;5111579;28;20531;-74
2021/08/17 10:03:17;;;;;;;16.88;7.95;;;;;;;;;;5109164;28;20088;-74
2021/08/17 10:05:43;;;;;;;19.17;7.60;;;;;;;;;;5112284;28;20174;-75
2021/08/17 10:08:12;;;;;;;15.98;7.25;;;;;;;;;;5110562;28;20110;-75
2021/08/17 10:10:42;;;;;;;24.10;8.10;;;;;;;;;;5110750;28;20020;-75
2021/08/17 10:13:11;;;;;;;19.10;7.10;;;;;;;;;;5107882;28;20023;-73
2021/08/17 10:15:38;;;;;;;14.13;5.40;;;;;;;;;;5112187;28;20107;-75
2021/08/17 10:18:04;;;;;;;15.88;6.53;;;;;;;;;;5111886;28;20076;-74
2021/08/17 10:20:30;;;;;;;12.90;6.35;;;;;;;;;;5111562;28;20011;-74
2021/08/17 10:22:57;;;;;;;16.92;7.30;;;;;;;;;;5109519;28;20143;-73
2021/08/17 10:25:23;;;;;;;16.35;5.95;;;;;;;;;;5111927;28;20020;-73
2021/08/17 10:27:49;;;;;;;12.98;6.35;;;;;;;;;;5112446;28;20050;-76
2021/08/17 10:30:16;;;;;;;11.85;5.40;;;;;;;;;;5106472;28;20039;-75
2021/08/17 10:32:48;;;;;;;16.40;6.40;;;;;;;;;;5103738;28;20024;-74
2021/08/17 10:35:29;;;;;;;13.32;6.22;;;;;;;;;;5105018;28;20127;-73
2021/08/17 10:38:10;;;;;;;14.68;6.72;;;;;;;;;;5112858;28;20058;-75
2021/08/17 10:40:51;;;;;;;18.20;7.75;;;;;;;;;;5111942;28;20031;-74
2021/08/17 10:43:19;;;;;;;14.65;7.30;;;;;;;;;;5108318;28;20040;-72
2021/08/17 10:45:59;;;;;;;18.98;7.75;;;;;;;;;;5094077;28;20027;-74
2021/08/17 10:48:43;;;;;;;15.90;7.22;;;;;;;;;;5111886;28;20027;-74
2021/08/17 10:51:10;;;;;;;21.58;8.02;;;;;;;;;;5111959;28;20080;-71
2021/08/17 10:53:37;;;;;;;17.77;7.75;;;;;;;;;;5109067;28;20118;-71
2021/08/17 10:56:19;;;;;;;16.52;8.20;;;;;;;;;;5112213;28;20031;-73
2021/08/17 10:58:46;;;;;;;18.27;8.88;;;;;;;;;;5112014;28;20046;-73
2021/08/17 11:01:12;;;;;;;17.50;9.23;;;;;;;;;;5111549;28;20043;-73
2021/08/17 11:03:47;;;;;;;15.10;8.70;;;;;;;;;;5108404;28;20119;-71
2021/08/17 11:06:42;;;;;;;17.45;8.27;;;;;;;;;;5106408;28;20485;-73
2021/08/17 11:09:41;;;;;;;17.63;7.78;;;;;;;;;;5090426;28;20077;-73
2021/08/17 11:12:08;;;;;;;15.18;6.90;;;;;;;;;;5063159;28;20040;-72
2021/08/17 11:14:35;;;;;;;11.77;7.00;;;;;;;;;;5097478;28;20581;-73
2021/08/17 11:17:05;;;;;;;15.75;7.70;;;;;;;;;;5111067;28;20127;-73
2021/08/17 11:19:33;;;;;;;13.32;7.22;;;;;;;;;;5109926;28;20028;-81
2021/08/17 11:22:00;;;;;;;19.55;6.72;;;;;;;;;;5108561;28;20091;-73
2021/08/17 11:24:28;;;;;;;15.50;7.95;;;;;;;;;;5110657;28;20031;-73
2021/08/17 11:26:58;;;;;;;14.68;9.00;;;;;;;;;;5110963;28;20616;-73
2021/08/17 11:29:29;;;;;;;12.50;6.80;;;;;;;;;;5109354;28;20036;-73
2021/08/17 11:31:56;;;;;;;12.18;5.80;;;;;;;;;;5087587;28;20024;-72
2021/08/17 11:34:22;;;;;;;8.98;4.63;;;;;;;;;;5108934;28;20032;-72
2021/08/17 11:36:57;;;;;;;12.18;5.82;;;;;;;;;;5110591;28;20032;-73
2021/08/17 11:39:24;;;;;;;12.32;5.47;;;;;;;;;;5111136;28;20023;-72
2021/08/17 11:41:51;;;;;;;7.97;4.85;;;;;;;;;;5108407;28;20223;-73
2021/08/17 11:44:17;;;;;;;11.45;6.55;;;;;;;;;;5110357;28;20027;-72
2021/08/17 11:46:43;;;;;;;16.42;7.47;;;;;;;;;;5092672;28;20032;-72
2021/08/17 11:49:19;;;;;;;13.13;7.30;;;;;;;;;;5092539;28;20024;-75
2021/08/17 11:51:45;;;;;;;12.90;7.57;;;;;;;;;;5089827;28;20020;-71
2021/08/17 11:54:15;;;;;;;14.30;7.43;;;;;;;;;;5110713;28;20042;-72
2021/08/17 11:56:41;;;;;;;12.55;7.55;;;;;;;;;;5111564;28;20024;-72
2021/08/17 11:59:07;;;;;;;16.25;7.93;;;;;;;;;;5092355;28;20133;-73
2021/08/17 12:01:33;;;;;;;19.92;8.15;;;;;;;;;;5107946;28;20032;-72
2021/08/17 12:04:06;;;;;;;10.55;6.88;;;;;;;;;;5110074;28;20016;-72
2021/08/17 12:06:32;;;;;;;10.88;7.53;;;;;;;;;;5092301;28;20137;-73
2021/08/17 12:09:18;;;;;;;12.73;8.02;;;;;;;;;;5110598;28;20109;-73
2021/08/17 12:11:57;;;;;;;8.82;5.60;;;;;;;;;;5093874;28;20062;-73
2021/08/17 12:14:25;;;;;;;13.85;6.72;;;;;;;;;;5110511;28;20106;-72
2021/08/17 12:16:52;;;;;;;13.90;8.38;;;;;;;;;;5110083;28;20023;-74
2021/08/17 12:19:18;;;;;;;11.00;7.03;;;;;;;;;;5109517;28;20058;-70
2021/08/17 12:21:45;;;;;;;12.70;7.88;;;;;;;;;;5107169;28;20027;-72
2021/08/17 12:24:20;;;;;;;10.77;6.72;;;;;;;;;;5110550;28;20015;-73
2021/08/17 12:27:12;;;;;;;20.00;7.20;;;;;;;;;;5110570;28;20024;-74
2021/08/17 12:29:39;;;;;;;11.90;6.60;;;;;;;;;;5102510;28;20036;-74
2021/08/17 12:32:28;;;;;;;12.75;6.70;;;;;;;;;;5106849;28;20389;-73
2021/08/17 12:34:55;;;;;;;16.02;5.95;;;;;;;;;;5109989;27;20127;-73
2021/08/17 12:37:25;;;;;;;14.43;6.07;;;;;;;;;;5088457;28;20401;-72
2021/08/17 12:39:52;;;;;;;9.20;6.75;;;;;;;;;;5110380;28;20076;-74
2021/08/17 12:42:18;;;;;;;11.57;6.80;;;;;;;;;;5107565;28;20028;-72
2021/08/17 12:44:45;;;;;;;12.43;6.97;;;;;;;;;;5091327;28;20140;-72
2021/08/17 12:47:12;;;;;;;12.45;5.72;;;;;;;;;;5110741;28;20024;-72
2021/08/17 12:49:39;;;;;;;10.32;6.85;;;;;;;;;;5091947;28;20118;-74
2021/08/17 12:52:24;;;;;;;19.15;6.72;;;;;;;;;;5089243;28;20515;-71
2021/08/17 12:54:51;;;;;;;9.20;5.25;;;;;;;;;;5113465;28;20055;-72
2021/08/17 12:57:20;;;;;;;9.27;6.35;;;;;;;;;;5114235;28;20023;-71
2021/08/17 12:59:47;;;;;;;12.75;6.50;;;;;;;;;;5113626;28;20053;-72
2021/08/17 13:02:13;;;;;;;10.55;5.47;;;;;;;;;;5111236;28;20028;-72
2021/08/17 13:04:39;;;;;;;9.68;5.65;;;;;;;;;;5113629;28;20025;-72
2021/08/17 13:07:05;;;;;;;8.57;5.65;;;;;;;;;;5114144;28;20023;-71
2021/08/17 13:09:32;;;;;;;14.35;5.40;;;;;;;;;;5093774;28;20047;-73
2021/08/17 13:11:58;;;;;;;12.18;6.25;;;;;;;;;;5092451;28;20708;-71
2021/08/17 13:14:24;;;;;;;16.95;7.72;;;;;;;;;;5113198;28;20035;-72
2021/08/17 13:16:50;;;;;;;9.32;5.80;;;;;;;;;;5112766;28;20523;-72
2021/08/17 13:19:16;;;;;;;7.80;5.90;;;;;;;;;;5113206;28;20170;-72
2021/08/17 13:21:42;;;;;;;9.57;6.50;;;;;;;;;;5111192;28;20012;-73
2021/08/17 13:24:08;;;;;;;10.65;6.10;;;;;;;;;;5095070;28;20069;-72
2021/08/17 13:26:34;;;;;;;9.13;6.60;;;;;;;;;;5113626;28;20043;-72
2021/08/17 13:29:00;;;;;;;13.13;8.13;;;;;;;;;;5107160;28;20024;-72
2021/08/17 13:31:27;;;;;;;13.43;9.23;;;;;;;;;;5111867;28;20525;-73
2021/08/17 13:33:53;;;;;;;11.15;8.35;;;;;;;;;;5112167;27;20028;-71
2021/08/17 13:36:19;;;;;;;14.10;9.68;;;;;;;;;;5112959;28;20039;-72
2021/08/17 13:38:45;;;;;;;9.90;7.88;;;;;;;;;;5113422;28;20080;-72
2021/08/17 13:41:11;;;;;;;9.98;8.23;;;;;;;;;;5095100;28;20110;-71
2021/08/17 13:43:37;;;;;;;13.25;6.85;;;;;;;;;;5091466;28;20075;-70
2021/08/17 13:46:04;;;;;;;12.23;6.60;;;;;;;;;;5111134;28;20039;-70
2021/08/17 13:48:30;;;;;;;9.77;6.75;;;;;;;;;;5094867;28;20012;-75
2021/08/17 13:50:56;;;;;;;12.90;6.10;;;;;;;;;;5112190;28;20027;-74
2021/08/17 13:53:23;;;;;;;13.65;5.07;;;;;;;;;;5092241;28;20066;-74
2021/08/17 13:55:49;;;;;;;11.98;4.32;;;;;;;;;;5093182;28;20036;-73
2021/08/17 13:58:15;;;;;;;12.52;4.15;;;;;;;;;;5112522;28;20057;-72
2021/08/17 14:00:42;;;;;;;7.35;4.57;;;;;;;;;;5113019;28;20415;-73
2021/08/17 14:03:08;;;;;;;14.10;5.28;;;;;;;;;;5109652;28;20024;-72
2021/08/17 14:05:34;;;;;;;6.63;4.10;;;;;;;;;;5112680;28;20020;-74
2021/08/17 14:08:01;;;;;;;6.90;4.53;;;;;;;;;;5113162;28;20504;-73
2021/08/17 14:10:27;;;;;;;14.30;5.60;;;;;;;;;;5111777;28;20450;-73
2021/08/17 14:12:53;;;;;;;6.75;5.43;;;;;;;;;;5110208;28;20054;-73
2021/08/17 14:15:20;;;;;;;12.77;6.68;;;;;;;;;;5110565;28;20035;-73
2021/08/17 14:17:46;;;;;;;9.48;7.15;;;;;;;;;;5110435;28;20059;-73
2021/08/17 14:20:12;;;;;;;12.52;8.18;;;;;;;;;;5110806;28;20019;-72
2021/08/17 14:22:38;;;;;;;9.57;8.32;;;;;;;;;;5108767;28;20008;-72
2021/08/17 14:25:05;;;;;;;9.65;7.47;;;;;;;;;;5091421;28;20110;-71
2021/08/17 14:27:31;;;;;;;12.40;7.57;;;;;;;;;;5110727;28;20027;-72
2021/08/17 14:29:57;;;;;;;8.30;6.95;;;;;;;;;;5112637;27;20024;-73